Time,TemperatureF,DewpointF,PressureIn,WindDirection,WindDirectionDegrees,WindSpeedMPH,WindSpeedGustMPH,Humidity,HourlyPrecipIn,Conditions,Clouds,dailyrainin,SoftwareType,DateUTC
2013-02-03 00:00:00,39.4,37.5,30.16,West,267,5.0,11.0,93,0.00,,---,0.44,VWS V14.01,2013-02-03 05:00:00,
2013-02-03 00:01:00,39.3,37.5,30.16,West,271,10.0,12.0,93,0.00,,---,0.44,VWS V14.01,2013-02-03 05:01:00,
2013-02-03 00:02:00,39.3,37.5,30.16,West,267,6.0,12.0,93,0.00,,---,0.44,VWS V14.01,2013-02-03 05:02:00,
2013-02-03 00:07:00,39.2,37.3,30.16,West,267,5.0,13.0,93,0.00,,---,0.00,VWS V14.01,2013-02-03 05:07:00,
2013-02-03 00:12:00,39.0,37.2,30.16,West,267,3.0,13.0,93,0.00,,---,0.00,VWS V14.01,2013-02-03 05:12:00,
2013-02-03 00:17:00,38.9,37.0,30.15,West,267,2.0,13.0,93,0.00,,---,0.00,VWS V14.01,2013-02-03 05:17:00,
2013-02-03 00:22:00,38.7,36.8,30.15,West,267,3.0,13.0,93,0.00,,---,0.00,VWS V14.01,2013-02-03 05:22:00,
2013-02-03 00:27:00,38.7,36.8,30.15,West,267,4.0,13.0,93,0.00,,---,0.00,VWS V14.01,2013-02-03 05:27:00,
2013-02-03 00:32:00,38.6,36.8,30.15,West,267,4.0,13.0,93,0.00,,---,0.00,VWS V14.01,2013-02-03 05:32:00,
2013-02-03 00:37:00,38.6,36.8,30.15,West,267,3.0,7.0,93,0.00,,---,0.00,VWS V14.01,2013-02-03 05:37:00,
2013-02-03 00:42:00,38.7,36.8,30.15,West,267,4.0,7.0,93,0.00,,---,0.00,VWS V14.01,2013-02-03 05:42:00,
2013-02-03 00:47:00,38.7,36.8,30.16,West,268,2.0,9.0,93,0.00,,---,0.00,VWS V14.01,2013-02-03 05:47:00,
2013-02-03 00:52:00,38.8,37.0,30.16,West,277,6.0,11.0,93,0.00,,---,0.00,VWS V14.01,2013-02-03 05:52:00,
2013-02-03 00:57:00,38.8,37.0,30.16,West,274,11.0,11.0,93,0.00,,---,0.00,VWS V14.01,2013-02-03 05:57:00,
2013-02-03 01:00:00,36.9,35.1,30.14,West,269,7.0,7.0,93,0.00,,---,0.00,VWS V14.01,2013-02-03 06:00:00,
2013-02-03 01:02:00,38.9,37.0,30.16,West,269,5.0,13.0,93,0.00,,---,0.00,VWS V14.01,2013-02-03 06:02:00,
2013-02-03 01:30:00,36.3,34.5,30.13,West,268,3.0,11.0,93,0.00,,---,0.00,VWS V14.01,2013-02-03 06:30:00,
2013-02-03 01:58:00,38.8,37.0,30.15,West,269,3.0,7.0,93,0.00,,---,0.00,VWS V14.01,2013-02-03 06:58:00,
2013-02-03 02:00:00,36.2,34.6,30.13,West,269,3.0,13.0,94,0.00,,---,0.00,VWS V14.01,2013-02-03 07:00:00,
2013-02-03 02:03:00,37.0,35.2,30.14,West,269,4.0,7.0,93,0.00,,---,0.00,VWS V14.01,2013-02-03 07:03:00,
2013-02-03 02:08:00,36.9,35.1,30.14,West,269,4.0,7.0,93,0.00,,---,0.00,VWS V14.01,2013-02-03 07:08:00,
2013-02-03 02:13:00,36.8,35.0,30.14,West,268,6.0,11.0,93,0.00,,---,0.00,VWS V14.01,2013-02-03 07:13:00,
2013-02-03 02:18:00,36.8,35.0,30.14,West,267,5.0,11.0,93,0.00,,---,0.00,VWS V14.01,2013-02-03 07:18:00,
2013-02-03 02:23:00,36.6,34.8,30.13,West,264,6.0,11.0,93,0.00,,---,0.00,VWS V14.01,2013-02-03 07:23:00,
2013-02-03 02:28:00,36.5,34.9,30.14,West,268,5.0,11.0,94,0.00,,---,0.00,VWS V14.01,2013-02-03 07:28:00,
2013-02-03 02:33:00,36.3,34.5,30.13,West,268,2.0,11.0,93,0.00,,---,0.00,VWS V14.01,2013-02-03 07:33:00,
2013-02-03 02:38:00,36.3,34.5,30.13,West,269,1.0,9.0,93,0.00,,---,0.00,VWS V14.01,2013-02-03 07:38:00,
2013-02-03 02:43:00,36.3,34.7,30.13,West,264,6.0,12.0,94,0.00,,---,0.00,VWS V14.01,2013-02-03 07:43:00,
2013-02-03 02:48:00,36.3,34.7,30.13,West,265,2.0,12.0,94,0.00,,---,0.00,VWS V14.01,2013-02-03 07:48:00,
2013-02-03 02:53:00,36.3,34.7,30.13,West,270,10.0,13.0,94,0.00,,---,0.00,VWS V14.01,2013-02-03 07:53:00,
2013-02-03 02:58:00,36.3,34.7,30.13,West,269,3.0,13.0,94,0.00,,---,0.00,VWS V14.01,2013-02-03 07:58:00,
2013-02-03 03:00:00,35.6,33.8,30.12,West,269,4.0,10.0,93,0.00,,---,0.00,VWS V14.01,2013-02-03 08:00:00,
2013-02-03 03:03:00,36.2,34.6,30.13,West,269,3.0,13.0,94,0.00,,---,0.00,VWS V14.01,2013-02-03 08:03:00,
2013-02-03 03:08:00,36.2,34.6,30.12,West,269,4.0,7.0,94,0.00,,---,0.00,VWS V14.01,2013-02-03 08:08:00,
2013-02-03 04:00:00,35.6,33.8,30.12,West,269,2.0,11.0,93,0.00,,---,0.00,VWS V14.01,2013-02-03 09:00:00,
2013-02-03 04:02:00,36.1,34.5,30.12,West,269,3.0,7.0,94,0.00,,---,0.00,VWS V14.01,2013-02-03 09:02:00,
2013-02-03 04:07:00,35.6,33.8,30.12,West,269,4.0,5.0,93,0.00,,---,0.00,VWS V14.01,2013-02-03 09:07:00,
2013-02-03 04:12:00,35.6,33.8,30.12,West,268,7.0,7.0,93,0.00,,---,0.00,VWS V14.01,2013-02-03 09:12:00,
2013-02-03 04:17:00,35.6,33.8,30.12,West,263,7.0,11.0,93,0.00,,---,0.00,VWS V14.01,2013-02-03 09:17:00,
2013-02-03 04:22:00,35.6,33.8,30.12,West,269,4.0,11.0,93,0.00,,---,0.00,VWS V14.01,2013-02-03 09:22:00,
2013-02-03 04:27:00,35.6,33.8,30.12,West,269,4.0,11.0,93,0.00,,---,0.00,VWS V14.01,2013-02-03 09:27:00,
2013-02-03 04:30:00,35.6,33.8,30.11,West,268,3.0,5.0,93,0.00,,---,0.00,VWS V14.01,2013-02-03 09:30:00,
2013-02-03 04:32:00,35.6,33.8,30.12,West,269,4.0,11.0,93,0.00,,---,0.00,VWS V14.01,2013-02-03 09:32:00,
2013-02-03 05:04:00,35.6,33.8,30.12,West,269,2.0,11.0,93,0.00,,---,0.00,VWS V14.01,2013-02-03 10:04:00,
2013-02-03 05:09:00,35.6,33.8,30.11,West,268,3.0,4.0,93,0.00,,---,0.00,VWS V14.01,2013-02-03 10:09:00,
2013-02-03 05:14:00,35.5,33.7,30.11,West,268,4.0,5.0,93,0.00,,---,0.00,VWS V14.01,2013-02-03 10:14:00,
2013-02-03 05:19:00,35.5,33.7,30.11,West,268,1.0,5.0,93,0.00,,---,0.00,VWS V14.01,2013-02-03 10:19:00,
2013-02-03 05:24:00,35.5,33.7,30.11,West,268,0.0,5.0,93,0.00,,---,0.00,VWS V14.01,2013-02-03 10:24:00,
2013-02-03 05:29:00,35.6,33.8,30.11,West,268,0.0,5.0,93,0.00,,---,0.00,VWS V14.01,2013-02-03 10:29:00,
2013-02-03 05:30:00,35.1,33.3,30.12,West,267,11.0,14.0,93,0.00,,---,0.00,VWS V14.01,2013-02-03 10:30:00,
2013-02-03 05:34:00,35.6,33.8,30.11,West,268,3.0,3.0,93,0.00,,---,0.00,VWS V14.01,2013-02-03 10:34:00,
2013-02-03 06:00:00,34.8,33.0,30.11,West,266,4.0,16.0,93,0.00,,---,0.00,VWS V14.01,2013-02-03 11:00:00,
2013-02-03 06:06:00,35.6,33.8,30.11,West,268,0.0,3.0,93,0.00,,---,0.00,VWS V14.01,2013-02-03 11:06:00,
2013-02-03 06:11:00,35.3,33.5,30.11,West,269,9.0,11.0,93,0.00,,---,0.00,VWS V14.01,2013-02-03 11:11:00,
2013-02-03 06:16:00,35.2,33.4,30.12,West,265,6.0,13.0,93,0.00,,---,0.00,VWS V14.01,2013-02-03 11:16:00,
2013-02-03 06:21:00,35.2,33.4,30.12,West,265,2.0,13.0,93,0.00,,---,0.00,VWS V14.01,2013-02-03 11:21:00,
2013-02-03 06:26:00,35.2,33.4,30.12,West,267,2.0,13.0,93,0.00,,---,0.00,VWS V14.01,2013-02-03 11:26:00,
2013-02-03 06:30:00,35.1,33.3,30.10,West,269,9.0,15.0,93,0.00,,---,0.00,VWS V14.01,2013-02-03 11:30:00,
2013-02-03 06:31:00,35.1,33.3,30.12,West,267,4.0,14.0,93,0.00,,---,0.00,VWS V14.01,2013-02-03 11:31:00,
2013-02-03 06:36:00,35.1,33.3,30.12,West,271,5.0,11.0,93,0.00,,---,0.00,VWS V14.01,2013-02-03 11:36:00,
2013-02-03 06:41:00,35.1,33.3,30.12,West,265,12.0,12.0,93,0.00,,---,0.00,VWS V14.01,2013-02-03 11:41:00,
2013-02-03 06:46:00,35.1,33.3,30.10,West,270,4.0,12.0,93,0.00,,---,0.00,VWS V14.01,2013-02-03 11:46:00,
2013-02-03 06:51:00,35.1,33.3,30.10,SW,233,6.0,12.0,93,0.00,,---,0.00,VWS V14.01,2013-02-03 11:51:00,
2013-02-03 06:56:00,35.1,33.3,30.10,WSW,245,5.0,12.0,93,0.00,,---,0.00,VWS V14.01,2013-02-03 11:56:00,
2013-02-03 07:00:00,35.6,33.8,30.11,West,267,6.0,14.0,93,0.00,,---,0.00,VWS V14.01,2013-02-03 12:00:00,
2013-02-03 07:01:00,34.9,33.1,30.11,West,275,3.0,16.0,93,0.00,,---,0.00,VWS V14.01,2013-02-03 12:01:00,
2013-02-03 07:06:00,34.7,32.9,30.11,West,265,5.0,15.0,93,0.00,,---,0.00,VWS V14.01,2013-02-03 12:06:00,
2013-02-03 07:11:00,34.7,32.9,30.11,West,267,6.0,15.0,93,0.00,,---,0.00,VWS V14.01,2013-02-03 12:11:00,
2013-02-03 07:16:00,34.7,32.9,30.11,West,268,9.0,15.0,93,0.00,,---,0.00,VWS V14.01,2013-02-03 12:16:00,
2013-02-03 07:21:00,34.8,33.0,30.11,West,267,4.0,15.0,93,0.00,,---,0.00,VWS V14.01,2013-02-03 12:21:00,
2013-02-03 07:26:00,34.9,33.1,30.10,West,268,4.0,15.0,93,0.00,,---,0.00,VWS V14.01,2013-02-03 12:26:00,
2013-02-03 07:30:00,36.1,34.3,30.11,West,268,5.0,14.0,93,0.00,,---,0.00,VWS V14.01,2013-02-03 12:30:00,
2013-02-03 07:31:00,35.0,33.2,30.10,West,269,7.0,15.0,93,0.00,,---,0.00,VWS V14.01,2013-02-03 12:31:00,
2013-02-03 07:36:00,35.1,33.3,30.10,West,268,3.0,10.0,93,0.00,,---,0.00,VWS V14.01,2013-02-03 12:36:00,
2013-02-03 07:41:00,35.2,33.4,30.11,West,259,5.0,12.0,93,0.00,,---,0.00,VWS V14.01,2013-02-03 12:41:00,
2013-02-03 07:46:00,35.3,33.5,30.10,WSW,252,5.0,14.0,93,0.00,,---,0.00,VWS V14.01,2013-02-03 12:46:00,
2013-02-03 07:51:00,35.4,33.6,30.10,West,263,7.0,14.0,93,0.00,,---,0.00,VWS V14.01,2013-02-03 12:51:00,
2013-02-03 07:56:00,35.4,33.6,30.10,West,260,6.0,14.0,93,0.00,,---,0.00,VWS V14.01,2013-02-03 12:56:00,
2013-02-03 08:00:00,36.3,34.2,30.10,West,261,5.0,13.0,92,0.00,,---,0.00,VWS V14.01,2013-02-03 13:00:00,
2013-02-03 08:01:00,35.5,33.7,30.11,West,268,2.0,14.0,93,0.00,,---,0.00,VWS V14.01,2013-02-03 13:01:00,
2013-02-03 08:06:00,35.6,33.8,30.11,West,267,5.0,6.0,93,0.00,,---,0.00,VWS V14.01,2013-02-03 13:06:00,
2013-02-03 08:11:00,35.7,35.5,30.11,West,264,6.0,12.0,99,0.00,,---,0.00,VWS V14.01,2013-02-03 13:11:00,
2013-02-03 08:16:00,35.8,34.0,30.11,West,265,1.0,12.0,93,0.00,,---,0.00,VWS V14.01,2013-02-03 13:16:00,
2013-02-03 08:21:00,35.9,34.1,30.11,West,267,2.0,14.0,93,0.00,,---,0.00,VWS V14.01,2013-02-03 13:21:00,
2013-02-03 08:26:00,36.0,34.2,30.11,West,263,3.0,14.0,93,0.00,,---,0.00,VWS V14.01,2013-02-03 13:26:00,
2013-02-03 08:30:00,37.4,35.3,30.09,West,265,6.0,13.0,92,0.00,,---,0.00,VWS V14.01,2013-02-03 13:30:00,
2013-02-03 08:31:00,36.1,34.3,30.11,West,265,4.0,14.0,93,0.00,,---,0.00,VWS V14.01,2013-02-03 13:31:00,
2013-02-03 08:36:00,36.1,34.3,30.11,West,268,4.0,9.0,93,0.00,,---,0.00,VWS V14.01,2013-02-03 13:36:00,
2013-02-03 08:41:00,36.3,34.5,30.10,West,268,4.0,9.0,93,0.00,,---,0.00,VWS V14.01,2013-02-03 13:41:00,
2013-02-03 08:46:00,36.3,34.5,30.11,West,268,3.0,9.0,93,0.00,,---,0.00,VWS V14.01,2013-02-03 13:46:00,
2013-02-03 08:51:00,36.3,34.5,30.11,West,268,3.0,9.0,93,0.00,,---,0.00,VWS V14.01,2013-02-03 13:51:00,
2013-02-03 08:56:00,36.3,34.5,30.10,West,267,1.0,9.0,93,0.00,,---,0.00,VWS V14.01,2013-02-03 13:56:00,
2013-02-03 09:00:00,38.9,36.2,30.08,West,269,12.0,17.0,90,0.00,,---,0.00,VWS V14.01,2013-02-03 14:00:00,
2013-02-03 09:01:00,36.3,34.5,30.10,West,269,13.0,13.0,93,0.00,,---,0.00,VWS V14.01,2013-02-03 14:01:00,
2013-02-03 09:06:00,36.4,34.3,30.10,West,263,4.0,6.0,92,0.00,,---,0.00,VWS V14.01,2013-02-03 14:06:00,
2013-02-03 09:11:00,36.7,34.9,30.10,West,263,3.0,6.0,93,0.00,,---,0.00,VWS V14.01,2013-02-03 14:11:00,
2013-02-03 09:16:00,36.9,35.1,30.10,West,266,10.0,10.0,93,0.00,,---,0.00,VWS V14.01,2013-02-03 14:16:00,
2013-02-03 09:21:00,36.9,34.8,30.09,West,264,7.0,10.0,92,0.00,,---,0.00,VWS V14.01,2013-02-03 14:21:00,
2013-02-03 09:26:00,37.0,34.9,30.09,West,265,4.0,13.0,92,0.00,,---,0.00,VWS V14.01,2013-02-03 14:26:00,
2013-02-03 09:30:00,41.2,37.6,30.08,West,269,4.0,17.0,87,0.00,,---,0.00,VWS V14.01,2013-02-03 14:30:00,
2013-02-03 09:31:00,37.2,35.1,30.09,West,261,7.0,13.0,92,0.00,,---,0.00,VWS V14.01,2013-02-03 14:31:00,
2013-02-03 09:36:00,37.4,35.3,30.09,West,266,7.0,7.0,92,0.00,,---,0.00,VWS V14.01,2013-02-03 14:36:00,
2013-02-03 09:41:00,37.6,35.2,30.10,West,267,5.0,14.0,91,0.00,,---,0.00,VWS V14.01,2013-02-03 14:41:00,
2013-02-03 09:46:00,37.7,35.3,30.09,West,267,4.0,14.0,91,0.00,,---,0.00,VWS V14.01,2013-02-03 14:46:00,
2013-02-03 09:51:00,37.9,35.5,30.09,West,264,2.0,17.0,91,0.00,,---,0.00,VWS V14.01,2013-02-03 14:51:00,
2013-02-03 09:56:00,38.4,36.0,30.09,West,264,3.0,17.0,91,0.00,,---,0.00,VWS V14.01,2013-02-03 14:56:00,
2013-02-03 10:00:00,43.6,38.2,30.08,West,273,11.0,20.0,81,0.00,,---,0.00,VWS V14.01,2013-02-03 15:00:00,
2013-02-03 10:01:00,38.7,36.0,30.09,West,267,10.0,17.0,90,0.00,,---,0.00,VWS V14.01,2013-02-03 15:01:00,
2013-02-03 10:06:00,39.0,36.3,30.08,West,262,15.0,17.0,90,0.00,,---,0.00,VWS V14.01,2013-02-03 15:06:00,
2013-02-03 10:11:00,39.5,36.8,30.08,West,271,4.0,17.0,90,0.00,,---,0.00,VWS V14.01,2013-02-03 15:11:00,
2013-02-03 10:16:00,40.2,37.2,30.09,West,273,7.0,17.0,89,0.00,,---,0.00,VWS V14.01,2013-02-03 15:16:00,
2013-02-03 10:21:00,40.7,37.4,30.08,WSW,257,3.0,17.0,88,0.00,,---,0.00,VWS V14.01,2013-02-03 15:21:00,
2013-02-03 10:26:00,40.8,37.2,30.08,West,275,7.0,17.0,87,0.00,,---,0.00,VWS V14.01,2013-02-03 15:26:00,
2013-02-03 10:30:00,45.9,38.1,30.06,West,270,3.0,21.0,74,0.00,,---,0.00,VWS V14.01,2013-02-03 15:30:00,
2013-02-03 10:31:00,40.9,37.0,30.08,West,270,8.0,17.0,86,0.00,,---,0.00,VWS V14.01,2013-02-03 15:31:00,
2013-02-03 10:36:00,41.4,37.8,30.08,West,274,10.0,17.0,87,0.00,,---,0.00,VWS V14.01,2013-02-03 15:36:00,
2013-02-03 10:41:00,41.4,37.2,30.08,West,269,13.0,17.0,85,0.00,,---,0.00,VWS V14.01,2013-02-03 15:41:00,
2013-02-03 10:46:00,42.0,37.8,30.08,West,271,5.0,17.0,85,0.00,,---,0.00,VWS V14.01,2013-02-03 15:46:00,
2013-02-03 10:51:00,42.3,37.8,30.08,SW,225,6.0,17.0,84,0.00,,---,0.00,VWS V14.01,2013-02-03 15:51:00,
2013-02-03 10:56:00,42.5,38.0,30.08,West,276,4.0,20.0,84,0.00,,---,0.00,VWS V14.01,2013-02-03 15:56:00,
2013-02-03 11:01:00,43.2,38.7,30.08,WSW,252,9.0,20.0,84,0.00,,---,0.00,VWS V14.01,2013-02-03 16:01:00,
2013-02-03 11:06:00,43.8,38.4,30.08,West,267,17.0,17.0,81,0.00,,---,0.00,VWS V14.01,2013-02-03 16:06:00,
2013-02-03 11:11:00,44.4,38.6,30.07,West,267,19.0,19.0,80,0.00,,---,0.00,VWS V14.01,2013-02-03 16:11:00,
2013-02-03 11:16:00,44.7,38.6,30.07,West,267,16.0,19.0,79,0.00,,---,0.00,VWS V14.01,2013-02-03 16:16:00,
2013-02-03 11:21:00,45.1,38.7,30.07,West,265,6.0,21.0,78,0.00,,---,0.00,VWS V14.01,2013-02-03 16:21:00,
2013-02-03 11:26:00,45.2,38.4,30.07,West,269,10.0,21.0,77,0.00,,---,0.00,VWS V14.01,2013-02-03 16:26:00,
2013-02-03 11:30:00,49.8,37.3,30.04,West,265,5.0,23.0,62,0.00,,---,0.00,VWS V14.01,2013-02-03 16:30:00,
2013-02-03 11:31:00,45.6,38.5,30.07,West,262,8.0,21.0,76,0.00,,---,0.00,VWS V14.01,2013-02-03 16:31:00,
2013-02-03 11:36:00,46.2,38.7,30.06,West,269,7.0,18.0,75,0.00,,---,0.00,VWS V14.01,2013-02-03 16:36:00,
2013-02-03 11:41:00,46.8,38.3,30.06,WNW,288,13.0,23.0,72,0.00,,---,0.00,VWS V14.01,2013-02-03 16:41:00,
2013-02-03 11:46:00,47.0,37.4,30.06,WSW,250,10.0,23.0,69,0.00,,---,0.00,VWS V14.01,2013-02-03 16:46:00,
2013-02-03 11:51:00,47.3,38.0,30.06,West,274,3.0,23.0,70,0.00,,---,0.00,VWS V14.01,2013-02-03 16:51:00,
2013-02-03 12:00:00,51.4,37.1,30.03,West,278,5.0,18.0,58,0.00,,---,0.00,VWS V14.01,2013-02-03 17:00:00,
2013-02-03 12:13:00,47.8,38.1,30.06,West,267,11.0,23.0,69,0.00,,---,0.00,VWS V14.01,2013-02-03 17:13:00,
2013-02-03 12:18:00,49.6,37.9,30.05,West,264,3.0,23.0,64,0.00,,---,0.00,VWS V14.01,2013-02-03 17:18:00,
2013-02-03 12:23:00,50.2,37.7,30.05,West,272,9.0,23.0,62,0.00,,---,0.00,VWS V14.01,2013-02-03 17:23:00,
2013-02-03 12:28:00,49.6,37.1,30.05,West,275,6.0,23.0,62,0.00,,---,0.00,VWS V14.01,2013-02-03 17:28:00,
2013-02-03 12:30:00,51.1,34.6,30.02,West,261,21.0,27.0,53,0.00,,---,0.00,VWS V14.01,2013-02-03 17:30:00,
2013-02-03 12:33:00,49.9,37.0,30.04,WSW,242,6.0,23.0,61,0.00,,---,0.00,VWS V14.01,2013-02-03 17:33:00,
2013-02-03 12:38:00,50.3,37.4,30.04,West,265,2.0,17.0,61,0.00,,---,0.00,VWS V14.01,2013-02-03 17:38:00,
2013-02-03 12:43:00,51.2,36.1,30.04,WNW,286,14.0,17.0,56,0.00,,---,0.00,VWS V14.01,2013-02-03 17:43:00,
2013-02-03 12:48:00,50.9,35.8,30.04,West,274,6.0,18.0,56,0.00,,---,0.00,VWS V14.01,2013-02-03 17:48:00,
2013-02-03 12:53:00,51.1,36.0,30.04,WNW,290,11.0,18.0,56,0.00,,---,0.00,VWS V14.01,2013-02-03 17:53:00,
2013-02-03 12:58:00,51.1,36.4,30.03,West,277,1.0,18.0,57,0.00,,---,0.00,VWS V14.01,2013-02-03 17:58:00,
2013-02-03 13:03:00,51.3,37.0,30.03,WNW,284,2.0,18.0,58,0.00,,---,0.00,VWS V14.01,2013-02-03 18:03:00,
2013-02-03 13:08:00,51.0,35.0,30.03,West,259,6.0,19.0,54,0.00,,---,0.00,VWS V14.01,2013-02-03 18:08:00,
2013-02-03 13:13:00,50.6,35.9,30.03,West,274,10.0,22.0,57,0.00,,---,0.00,VWS V14.01,2013-02-03 18:13:00,
2013-02-03 13:18:00,51.0,36.3,30.03,WNW,291,6.0,22.0,57,0.00,,---,0.00,VWS V14.01,2013-02-03 18:18:00,
2013-02-03 13:23:00,51.3,36.2,30.03,WSW,256,5.0,22.0,56,0.00,,---,0.00,VWS V14.01,2013-02-03 18:23:00,
2013-02-03 13:28:00,51.6,36.9,30.02,West,268,7.0,22.0,57,0.00,,---,0.00,VWS V14.01,2013-02-03 18:28:00,
2013-02-03 13:30:00,51.3,34.8,30.01,West,279,10.0,28.0,53,0.00,,---,0.00,VWS V14.01,2013-02-03 18:30:00,
2013-02-03 13:33:00,51.1,34.6,30.02,West,265,14.0,22.0,53,0.00,,---,0.00,VWS V14.01,2013-02-03 18:33:00,
2013-02-03 13:38:00,50.5,34.0,30.02,West,278,12.0,23.0,53,0.00,,---,0.00,VWS V14.01,2013-02-03 18:38:00,
2013-02-03 13:43:00,50.7,35.1,30.02,West,274,14.0,23.0,55,0.00,,---,0.00,VWS V14.01,2013-02-03 18:43:00,
2013-02-03 13:48:00,50.7,34.7,30.02,WSW,248,3.0,26.0,54,0.00,,---,0.00,VWS V14.01,2013-02-03 18:48:00,
2013-02-03 13:53:00,50.9,34.4,30.01,WNW,289,8.0,28.0,53,0.00,,---,0.00,VWS V14.01,2013-02-03 18:53:00,
2013-02-03 13:55:00,51.1,35.0,30.01,West,276,5.0,28.0,54,0.00,,---,0.00,VWS V14.01,2013-02-03 18:55:00,
2013-02-03 13:58:00,51.0,35.0,30.01,West,263,10.0,28.0,54,0.00,,---,0.00,VWS V14.01,2013-02-03 18:58:00,
2013-02-03 14:00:00,52.5,36.8,30.01,West,275,1.0,21.0,55,0.00,,---,0.00,VWS V14.01,2013-02-03 19:00:00,
2013-02-03 14:21:00,51.1,35.0,30.01,West,275,3.0,28.0,54,0.00,,---,0.00,VWS V14.01,2013-02-03 19:21:00,
2013-02-03 14:26:00,51.7,35.1,30.01,WSW,242,5.0,28.0,53,0.00,,---,0.00,VWS V14.01,2013-02-03 19:26:00,
2013-02-03 14:31:00,51.1,35.0,30.01,West,273,1.0,28.0,54,0.00,,---,0.00,VWS V14.01,2013-02-03 19:31:00,
2013-02-03 14:36:00,51.3,35.2,30.01,West,260,2.0,14.0,54,0.00,,---,0.00,VWS V14.01,2013-02-03 19:36:00,
2013-02-03 14:41:00,51.6,35.0,30.01,West,263,12.0,17.0,53,0.00,,---,0.00,VWS V14.01,2013-02-03 19:41:00,
2013-02-03 14:46:00,51.6,34.6,30.01,West,281,11.0,20.0,52,0.00,,---,0.00,VWS V14.01,2013-02-03 19:46:00,
2013-02-03 14:52:00,51.5,35.4,30.01,West,271,11.0,20.0,54,0.00,,---,0.00,VWS V14.01,2013-02-03 19:52:00,
2013-02-03 14:56:00,52.0,35.4,30.01,West,259,5.0,21.0,53,0.00,,---,0.00,VWS V14.01,2013-02-03 19:56:00,
2013-02-03 15:01:00,52.3,36.2,30.01,West,274,4.0,21.0,54,0.00,,---,0.00,VWS V14.01,2013-02-03 20:01:00,
2013-02-03 15:06:00,52.9,37.2,30.01,West,269,3.0,9.0,55,0.00,,---,0.00,VWS V14.01,2013-02-03 20:06:00,
2013-02-03 15:11:00,53.3,37.6,30.01,West,263,7.0,12.0,55,0.00,,---,0.00,VWS V14.01,2013-02-03 20:11:00,
2013-02-03 15:16:00,52.4,36.7,30.01,West,268,8.0,22.0,55,0.00,,---,0.00,VWS V14.01,2013-02-03 20:16:00,
2013-02-03 15:21:00,51.9,35.8,30.02,West,280,2.0,22.0,54,0.00,,---,0.00,VWS V14.01,2013-02-03 20:21:00,
2013-02-03 15:26:00,51.9,36.3,30.02,West,260,2.0,22.0,55,0.00,,---,0.00,VWS V14.01,2013-02-03 20:26:00,
2013-02-03 15:28:00,52.4,35.3,30.01,West,277,11.0,22.0,52,0.00,,---,0.00,VWS V14.01,2013-02-03 20:28:00,
2013-02-03 15:30:00,53.5,32.1,30.02,WNW,286,11.0,22.0,44,0.00,,---,0.00,VWS V14.01,2013-02-03 20:30:00,
2013-02-03 15:31:00,52.4,35.3,30.02,WSW,258,12.0,22.0,52,0.00,,---,0.00,VWS V14.01,2013-02-03 20:31:00,
2013-02-03 16:25:00,52.5,35.4,30.01,West,277,6.0,22.0,52,0.00,,---,0.00,VWS V14.01,2013-02-03 21:25:00,
2013-02-03 16:30:00,53.6,32.8,30.02,West,273,3.0,22.0,45,0.00,,---,0.00,VWS V14.01,2013-02-03 21:30:00,
2013-02-03 16:35:00,53.4,32.0,30.02,WSW,255,3.0,14.0,44,0.00,,---,0.00,VWS V14.01,2013-02-03 21:35:00,
2013-02-03 16:40:00,53.6,31.7,30.02,West,278,7.0,14.0,43,0.00,,---,0.00,VWS V14.01,2013-02-03 21:40:00,
2013-02-03 16:45:00,53.4,31.5,30.02,West,272,5.0,15.0,43,0.00,,---,0.00,VWS V14.01,2013-02-03 21:45:00,
2013-02-03 16:50:00,53.3,32.0,30.03,WNW,294,3.0,15.0,44,0.00,,---,0.00,VWS V14.01,2013-02-03 21:50:00,
2013-02-03 16:51:00,53.1,31.8,30.03,West,262,4.0,17.0,44,0.00,,---,0.00,VWS V14.01,2013-02-03 21:51:00,
2013-02-03 16:55:00,53.1,31.8,30.03,West,277,7.0,15.0,44,0.00,,---,0.00,VWS V14.01,2013-02-03 21:55:00,
2013-02-03 17:00:00,49.7,30.3,30.04,WSW,258,6.0,16.0,47,0.00,,---,0.00,VWS V14.01,2013-02-03 22:00:00,
2013-02-03 17:26:00,53.1,31.8,30.03,West,262,4.0,17.0,44,0.00,,---,0.00,VWS V14.01,2013-02-03 22:26:00,
2013-02-03 17:30:00,48.4,30.6,30.05,West,275,2.0,10.0,50,0.00,,---,0.00,VWS V14.01,2013-02-03 22:30:00,
2013-02-03 17:31:00,51.4,30.8,30.04,West,275,9.0,17.0,45,0.00,,---,0.00,VWS V14.01,2013-02-03 22:31:00,
2013-02-03 17:36:00,51.1,30.5,30.04,ESE,122,2.0,15.0,45,0.00,,---,0.00,VWS V14.01,2013-02-03 22:36:00,
2013-02-03 17:41:00,50.7,30.1,30.04,West,276,3.0,15.0,45,0.00,,---,0.00,VWS V14.01,2013-02-03 22:41:00,
2013-02-03 17:46:00,50.6,30.6,30.04,West,274,2.0,16.0,46,0.00,,---,0.00,VWS V14.01,2013-02-03 22:46:00,
2013-02-03 17:51:00,50.3,30.9,30.04,WNW,282,4.0,16.0,47,0.00,,---,0.00,VWS V14.01,2013-02-03 22:51:00,
2013-02-03 17:56:00,50.1,30.7,30.04,West,263,2.0,16.0,47,0.00,,---,0.00,VWS V14.01,2013-02-03 22:56:00,
2013-02-03 18:01:00,49.8,30.4,30.04,West,272,5.0,16.0,47,0.00,,---,0.00,VWS V14.01,2013-02-03 23:01:00,
2013-02-03 18:06:00,49.6,30.7,30.04,West,267,9.0,10.0,48,0.00,,---,0.00,VWS V14.01,2013-02-03 23:06:00,
2013-02-03 18:11:00,49.4,30.5,30.04,West,264,3.0,10.0,48,0.00,,---,0.00,VWS V14.01,2013-02-03 23:11:00,
2013-02-03 18:16:00,49.2,30.4,30.04,West,269,3.0,10.0,48,0.00,,---,0.00,VWS V14.01,2013-02-03 23:16:00,
2013-02-03 18:21:00,48.9,30.6,30.05,West,268,1.0,10.0,49,0.00,,---,0.00,VWS V14.01,2013-02-03 23:21:00,
2013-02-03 18:26:00,48.6,30.3,30.05,West,272,5.0,10.0,49,0.00,,---,0.00,VWS V14.01,2013-02-03 23:26:00,
2013-02-03 18:30:00,46.2,30.0,30.07,West,276,1.0,7.0,53,0.00,,---,0.00,VWS V14.01,2013-02-03 23:30:00,
2013-02-03 18:31:00,48.5,30.7,30.05,West,273,1.0,10.0,50,0.00,,---,0.00,VWS V14.01,2013-02-03 23:31:00,
2013-02-03 18:34:00,48.2,30.5,30.06,West,276,0.0,7.0,50,0.00,,---,0.00,VWS V14.01,2013-02-03 23:34:00,
2013-02-03 18:36:00,48.3,30.5,30.05,West,276,2.0,7.0,50,0.00,,---,0.00,VWS V14.01,2013-02-03 23:36:00,
2013-02-03 19:00:00,45.2,29.6,30.08,West,276,0.0,6.0,54,0.00,,---,0.00,VWS V14.01,2013-02-04 00:00:00,
2013-02-03 19:30:00,48.2,30.5,30.06,West,276,0.0,7.0,50,0.00,,---,0.00,VWS V14.01,2013-02-04 00:30:00,
2013-02-03 19:35:00,46.2,30.0,30.07,West,277,0.0,2.0,53,0.00,,---,0.00,VWS V14.01,2013-02-04 00:35:00,
2013-02-03 19:40:00,46.0,29.8,30.07,West,277,1.0,3.0,53,0.00,,---,0.00,VWS V14.01,2013-02-04 00:40:00,
2013-02-03 19:45:00,45.8,29.7,30.07,West,277,0.0,6.0,53,0.00,,---,0.00,VWS V14.01,2013-02-04 00:45:00,
2013-02-03 19:50:00,45.6,29.9,30.08,West,276,0.0,6.0,54,0.00,,---,0.00,VWS V14.01,2013-02-04 00:50:00,
2013-02-03 19:55:00,45.5,29.8,30.08,West,277,0.0,6.0,54,0.00,,---,0.00,VWS V14.01,2013-02-04 00:55:00,
2013-02-03 20:00:00,45.4,29.7,30.08,West,277,0.0,6.0,54,0.00,,---,0.00,VWS V14.01,2013-02-04 01:00:00,
2013-02-03 20:05:00,45.0,29.8,30.08,West,276,0.0,0.0,55,0.00,,---,0.00,VWS V14.01,2013-02-04 01:05:00,
2013-02-03 20:10:00,44.6,29.9,30.08,West,276,0.0,0.0,56,0.00,,---,0.00,VWS V14.01,2013-02-04 01:10:00,
2013-02-03 20:15:00,44.0,30.2,30.08,West,276,0.0,0.0,58,0.00,,---,0.00,VWS V14.01,2013-02-04 01:15:00,
2013-02-03 20:20:00,43.3,30.0,30.08,West,277,0.0,0.0,59,0.00,,---,0.00,VWS V14.01,2013-02-04 01:20:00,
2013-02-03 20:25:00,42.5,30.4,30.08,West,276,0.0,0.0,62,0.00,,---,0.00,VWS V14.01,2013-02-04 01:25:00,
2013-02-03 20:30:00,41.6,30.3,30.08,West,276,0.0,0.0,64,0.00,,---,0.00,VWS V14.01,2013-02-04 01:30:00,
2013-02-03 20:35:00,40.8,30.3,30.09,West,276,0.0,0.0,66,0.00,,---,0.00,VWS V14.01,2013-02-04 01:35:00,
2013-02-03 20:40:00,40.1,30.4,30.09,West,277,1.0,1.0,68,0.00,,---,0.00,VWS V14.01,2013-02-04 01:40:00,
2013-02-03 20:45:00,39.4,29.7,30.09,West,277,0.0,1.0,68,0.00,,---,0.00,VWS V14.01,2013-02-04 01:45:00,
2013-02-03 20:50:00,38.8,29.9,30.09,West,276,0.0,2.0,70,0.00,,---,0.00,VWS V14.01,2013-02-04 01:50:00,
2013-02-03 20:55:00,39.0,29.7,30.09,West,276,0.0,7.0,69,0.00,,---,0.00,VWS V14.01,2013-02-04 01:55:00,
2013-02-03 21:00:00,39.1,30.2,30.08,West,277,0.0,7.0,70,0.00,,---,0.00,VWS V14.01,2013-02-04 02:00:00,
2013-02-03 21:05:00,39.4,30.1,30.08,West,276,0.0,3.0,69,0.00,,---,0.00,VWS V14.01,2013-02-04 02:05:00,
2013-02-03 21:09:00,39.4,30.4,30.08,West,277,2.0,3.0,70,0.00,,---,0.00,VWS V14.01,2013-02-04 02:09:00,
2013-02-03 21:10:00,39.5,30.5,30.08,West,276,2.0,3.0,70,0.00,,---,0.00,VWS V14.01,2013-02-04 02:10:00,
2013-02-03 21:30:00,40.7,29.9,30.10,West,277,1.0,5.0,65,0.00,,---,0.00,VWS V14.01,2013-02-04 02:30:00,
2013-02-03 21:34:00,39.4,30.4,30.08,West,277,2.0,3.0,70,0.00,,---,0.00,VWS V14.01,2013-02-04 02:34:00,
2013-02-03 21:39:00,39.9,29.9,30.09,West,277,0.0,2.0,67,0.00,,---,0.00,VWS V14.01,2013-02-04 02:39:00,
2013-02-03 21:44:00,39.9,29.5,30.09,West,277,1.0,5.0,66,0.00,,---,0.00,VWS V14.01,2013-02-04 02:44:00,
2013-02-03 21:49:00,40.3,29.9,30.09,West,277,0.0,5.0,66,0.00,,---,0.00,VWS V14.01,2013-02-04 02:49:00,
2013-02-03 21:54:00,40.5,29.7,30.09,West,277,0.0,5.0,65,0.00,,---,0.00,VWS V14.01,2013-02-04 02:54:00,
2013-02-03 21:59:00,40.5,30.0,30.09,West,277,0.0,5.0,66,0.00,,---,0.00,VWS V14.01,2013-02-04 02:59:00,
2013-02-03 22:00:00,39.8,29.8,30.11,West,276,3.0,5.0,67,0.00,,---,0.00,VWS V14.01,2013-02-04 03:00:00,
2013-02-03 22:04:00,40.4,30.0,30.10,West,277,2.0,5.0,66,0.00,,---,0.00,VWS V14.01,2013-02-04 03:04:00,
2013-02-03 22:09:00,40.6,29.8,30.10,West,277,4.0,5.0,65,0.00,,---,0.00,VWS V14.01,2013-02-04 03:09:00,
2013-02-03 22:14:00,40.9,30.1,30.10,West,276,4.0,5.0,65,0.00,,---,0.00,VWS V14.01,2013-02-04 03:14:00,
2013-02-03 22:19:00,41.0,30.1,30.10,West,277,2.0,5.0,65,0.00,,---,0.00,VWS V14.01,2013-02-04 03:19:00,
2013-02-03 22:24:00,40.9,30.1,30.10,West,277,2.0,5.0,65,0.00,,---,0.00,VWS V14.01,2013-02-04 03:24:00,
2013-02-03 22:29:00,40.8,30.0,30.10,West,277,0.0,5.0,65,0.00,,---,0.00,VWS V14.01,2013-02-04 03:29:00,
2013-02-03 22:30:00,38.4,29.5,30.11,West,277,0.0,4.0,70,0.00,,---,0.00,VWS V14.01,2013-02-04 03:30:00,
2013-02-03 22:34:00,40.7,29.9,30.10,West,277,1.0,5.0,65,0.00,,---,0.00,VWS V14.01,2013-02-04 03:34:00,
2013-02-03 22:39:00,40.5,30.0,30.11,West,277,0.0,2.0,66,0.00,,---,0.00,VWS V14.01,2013-02-04 03:39:00,
2013-02-03 22:44:00,40.0,29.9,30.10,West,277,0.0,2.0,67,0.00,,---,0.00,VWS V14.01,2013-02-04 03:44:00,
2013-02-03 22:49:00,39.8,29.8,30.10,West,276,4.0,4.0,67,0.00,,---,0.00,VWS V14.01,2013-02-04 03:49:00,
2013-02-03 22:54:00,39.8,29.8,30.10,West,276,0.0,5.0,67,0.00,,---,0.00,VWS V14.01,2013-02-04 03:54:00,
2013-02-03 22:59:00,39.9,29.9,30.11,West,277,0.0,5.0,67,0.00,,---,0.00,VWS V14.01,2013-02-04 03:59:00,
2013-02-03 23:00:00,38.7,29.4,30.11,West,276,1.0,5.0,69,0.00,,---,0.00,VWS V14.01,2013-02-04 04:00:00,
2013-02-03 23:04:00,39.8,29.8,30.11,West,277,2.0,3.0,67,0.00,,---,0.00,VWS V14.01,2013-02-04 04:04:00,
2013-02-03 23:09:00,39.9,29.9,30.11,West,277,2.0,4.0,67,0.00,,---,0.00,VWS V14.01,2013-02-04 04:09:00,
2013-02-03 23:14:00,39.6,29.9,30.11,West,276,0.0,4.0,68,0.00,,---,0.00,VWS V14.01,2013-02-04 04:14:00,
2013-02-03 23:19:00,39.2,29.5,30.11,West,276,0.0,4.0,68,0.00,,---,0.00,VWS V14.01,2013-02-04 04:19:00,
2013-02-03 23:24:00,38.8,29.5,30.11,West,277,0.0,4.0,69,0.00,,---,0.00,VWS V14.01,2013-02-04 04:24:00,
2013-02-03 23:29:00,38.5,29.6,30.11,West,277,0.0,4.0,70,0.00,,---,0.00,VWS V14.01,2013-02-04 04:29:00,
2013-02-03 23:34:00,38.4,29.5,30.11,West,277,0.0,4.0,70,0.00,,---,0.00,VWS V14.01,2013-02-04 04:34:00,
2013-02-03 23:39:00,38.3,29.4,30.11,West,276,0.0,3.0,70,0.00,,---,0.00,VWS V14.01,2013-02-04 04:39:00,
2013-02-03 23:44:00,38.3,29.4,30.11,West,277,1.0,4.0,70,0.00,,---,0.00,VWS V14.01,2013-02-04 04:44:00,
2013-02-03 23:49:00,38.2,29.3,30.11,West,277,3.0,4.0,70,0.00,,---,0.00,VWS V14.01,2013-02-04 04:49:00,
2013-02-03 23:54:00,38.5,29.6,30.11,West,277,2.0,5.0,70,0.00,,---,0.00,VWS V14.01,2013-02-04 04:54:00,
2013-02-03 23:59:00,38.6,29.3,30.11,West,276,1.0,5.0,69,0.00,,---,0.00,VWS V14.01,2013-02-04 04:59:00,